Time;durP1;ratioP1;P1;durP2;ratioP2;P2;SDS_P1;SDS_P2;PMS_P1;PMS_P2;Temp;Humidity;BMP_temperature;BMP_pressure;BME280_temperature;BME280_humidity;BME280_pressure;Samples;Min_cycle;Max_cycle;Signal;HPM_P1;HPM_P2
2022/03/31 00:08:15;;;;;;;26.23;12.00;;;9.60;99.90;;;;;;6761280;88;20200;-81
2022/03/31 00:18:16;;;;;;;25.10;12.07;;;9.50;99.90;;;;;;6761564;88;20196;-80
2022/03/31 00:28:17;;;;;;;20.60;11.52;;;9.60;99.90;;;;;;6757602;88;20190;-80
2022/03/31 00:38:18;;;;;;;23.73;12.32;;;9.40;99.90;;;;;;6759715;88;20185;-81
2022/03/31 00:48:19;;;;;;;23.85;11.40;;;9.40;99.90;;;;;;6748471;88;21015;-81
2022/03/31 00:58:20;;;;;;;22.58;11.30;;;9.00;99.90;;;;;;6758099;88;20211;-80
2022/03/31 01:08:21;;;;;;;19.95;11.32;;;9.20;99.90;;;;;;6759017;88;21087;-80
2022/03/31 01:18:22;;;;;;;23.12;11.40;;;9.40;99.90;;;;;;6758067;88;20344;-80
2022/03/31 01:28:22;;;;;;;24.40;11.93;;;9.40;99.90;;;;;;6758699;88;20213;-80
2022/03/31 01:38:23;;;;;;;24.52;12.55;;;9.30;99.90;;;;;;6758099;88;20553;-80
2022/03/31 01:48:24;;;;;;;23.52;12.68;;;9.30;99.90;;;;;;6759718;88;20230;-80
2022/03/31 01:58:24;;;;;;;30.45;12.50;;;9.30;99.90;;;;;;6757493;88;20192;-80
2022/03/31 02:08:25;;;;;;;28.50;12.90;;;9.00;99.90;;;;;;6753160;88;20330;-80
2022/03/31 02:18:25;;;;;;;26.35;13.43;;;8.80;99.90;;;;;;6757198;88;20206;-80
2022/03/31 02:28:26;;;;;;;25.48;12.85;;;8.60;99.90;;;;;;6756038;88;20204;-80
2022/03/31 02:38:27;;;;;;;29.77;13.20;;;8.60;99.90;;;;;;6755971;88;20213;-80
2022/03/31 02:48:27;;;;;;;28.58;13.52;;;8.40;99.90;;;;;;6756417;88;20231;-80
2022/03/31 02:58:28;;;;;;;26.25;13.02;;;8.30;99.90;;;;;;6758230;88;20183;-80
2022/03/31 03:08:31;;;;;;;25.58;12.48;;;8.20;99.90;;;;;;6754932;88;20184;-80
2022/03/31 03:18:31;;;;;;;25.17;12.75;;;8.10;99.90;;;;;;6760163;88;20212;-81
2022/03/31 03:28:36;;;;;;;24.65;13.13;;;7.90;99.90;;;;;;6754960;88;20630;-80
2022/03/31 03:38:36;;;;;;;27.23;13.13;;;7.90;99.90;;;;;;6730250;88;20688;-79
2022/03/31 03:48:37;;;;;;;24.75;12.95;;;7.80;99.90;;;;;;6751333;88;20619;-80
2022/03/31 03:58:37;;;;;;;27.67;13.57;;;7.70;99.90;;;;;;6750735;88;20187;-80
2022/03/31 04:08:38;;;;;;;25.70;13.30;;;7.60;99.90;;;;;;6754565;88;20193;-80
2022/03/31 04:18:39;;;;;;;27.80;12.32;;;7.50;99.90;;;;;;6752896;88;20341;-80
2022/03/31 04:28:39;;;;;;;22.65;12.27;;;7.50;99.90;;;;;;6753062;88;20204;-79
2022/03/31 04:38:40;;;;;;;24.67;12.32;;;7.40;99.90;;;;;;6754836;88;20270;-80
2022/03/31 04:48:41;;;;;;;24.73;12.55;;;7.40;99.90;;;;;;6756587;88;20572;-79
2022/03/31 04:58:42;;;;;;;26.08;12.25;;;7.50;99.90;;;;;;6751794;88;20275;-79
2022/03/31 05:08:43;;;;;;;23.67;11.77;;;7.30;99.90;;;;;;6750070;88;20219;-79
2022/03/31 05:18:43;;;;;;;22.45;11.48;;;7.20;99.90;;;;;;6750564;88;20226;-79
2022/03/31 05:28:44;;;;;;;25.00;11.65;;;7.00;99.90;;;;;;6750537;88;20218;-79
2022/03/31 05:38:44;;;;;;;24.60;11.57;;;7.10;99.90;;;;;;6746132;88;20204;-79
2022/03/31 05:48:45;;;;;;;22.40;11.27;;;7.00;99.90;;;;;;6734959;88;20548;-79
2022/03/31 05:58:45;;;;;;;23.52;11.52;;;7.00;99.90;;;;;;6737083;88;20214;-78
2022/03/31 06:08:46;;;;;;;26.12;12.23;;;7.00;99.90;;;;;;6739432;88;20221;-80
2022/03/31 06:18:46;;;;;;;24.75;11.73;;;6.60;99.90;;;;;;6734286;88;20209;-79
2022/03/31 06:28:47;;;;;;;23.45;11.75;;;6.60;99.90;;;;;;6733841;88;20282;-79
2022/03/31 06:38:47;;;;;;;27.08;12.20;;;6.90;99.90;;;;;;6716536;88;20207;-79
2022/03/31 06:48:48;;;;;;;23.67;12.45;;;6.90;99.90;;;;;;6665266;89;20180;-78
2022/03/31 06:58:49;;;;;;;24.67;11.90;;;6.80;99.90;;;;;;6663090;89;20281;-78
2022/03/31 07:08:50;;;;;;;25.65;12.25;;;6.80;99.90;;;;;;6655217;88;20277;-79
2022/03/31 07:18:51;;;;;;;23.27;11.30;;;7.00;99.90;;;;;;6663762;89;20192;-79
2022/03/31 07:28:51;;;;;;;23.30;11.65;;;6.80;99.90;;;;;;6662342;89;20213;-79
2022/03/31 07:38:52;;;;;;;21.37;10.70;;;6.80;99.90;;;;;;6674715;89;20682;-79
2022/03/31 07:48:52;;;;;;;24.95;11.12;;;7.00;99.90;;;;;;6681285;89;20580;-79
2022/03/31 07:58:53;;;;;;;22.42;11.05;;;7.30;99.90;;;;;;6683921;89;20231;-79
2022/03/31 08:08:53;;;;;;;22.15;10.95;;;7.00;99.90;;;;;;6685884;89;20239;-79
2022/03/31 08:18:54;;;;;;;24.42;9.85;;;7.10;99.90;;;;;;6688380;89;20722;-79
2022/03/31 08:28:55;;;;;;;23.25;10.25;;;7.00;99.90;;;;;;6684114;88;20179;-79
2022/03/31 08:38:56;;;;;;;20.08;9.27;;;7.00;99.90;;;;;;6683634;89;20231;-79
2022/03/31 08:48:56;;;;;;;22.00;10.15;;;7.30;99.90;;;;;;6687060;89;20199;-78
2022/03/31 08:58:57;;;;;;;22.02;9.85;;;7.40;99.90;;;;;;6664545;89;20236;-78
2022/03/31 09:09:02;;;;;;;19.17;9.45;;;7.40;99.90;;;;;;6677038;89;20217;-78
2022/03/31 09:19:15;;;;;;;17.55;9.13;;;7.50;99.90;;;;;;6675745;89;20757;-78
2022/03/31 09:29:19;;;;;;;18.87;8.68;;;7.40;99.90;;;;;;6676876;89;20621;-78
2022/03/31 09:39:21;;;;;;;20.30;9.23;;;7.40;99.90;;;;;;6679270;89;20680;-78
2022/03/31 09:49:23;;;;;;;21.30;10.80;;;7.20;99.90;;;;;;6676961;89;20172;-77
2022/03/31 09:59:32;;;;;;;26.85;10.20;;;7.80;99.90;;;;;;6676657;89;20655;-78
2022/03/31 10:09:34;;;;;;;22.73;10.80;;;8.00;99.90;;;;;;6676686;89;20722;-78
2022/03/31 10:19:46;;;;;;;21.60;11.18;;;8.20;99.90;;;;;;6675016;88;20222;-78
2022/03/31 10:29:47;;;;;;;20.70;10.13;;;8.30;99.90;;;;;;6678611;89;20863;-78
2022/03/31 10:39:55;;;;;;;20.25;10.82;;;8.40;99.90;;;;;;6674516;89;20214;-78
2022/03/31 10:49:55;;;;;;;21.23;11.27;;;8.30;99.90;;;;;;6661224;89;20259;-78
2022/03/31 10:59:56;;;;;;;23.23;11.93;;;8.60;99.90;;;;;;6658417;89;20317;-78
2022/03/31 11:10:17;;;;;;;21.98;11.60;;;8.80;99.90;;;;;;6656884;89;20268;-78
2022/03/31 11:20:21;;;;;;;22.90;11.12;;;8.90;99.90;;;;;;6656939;89;20235;-78
2022/03/31 11:30:25;;;;;;;22.40;10.48;;;8.80;99.90;;;;;;6657617;89;20235;-77
2022/03/31 11:40:28;;;;;;;22.27;10.25;;;8.20;99.90;;;;;;6661381;89;20310;-79
2022/03/31 11:50:30;;;;;;;22.15;11.23;;;8.50;99.90;;;;;;6660098;89;20176;-78
2022/03/31 12:00:30;;;;;;;21.10;11.00;;;8.50;99.90;;;;;;6659503;89;20206;-77
2022/03/31 12:10:31;;;;;;;18.40;10.30;;;8.80;99.90;;;;;;6658670;89;20203;-77
2022/03/31 12:20:33;;;;;;;20.77;11.07;;;9.00;99.90;;;;;;6658938;89;20627;-77
2022/03/31 12:30:42;;;;;;;22.13;10.80;;;9.10;99.90;;;;;;6660522;88;21036;-77
2022/03/31 12:40:43;;;;;;;20.05;10.82;;;9.10;99.90;;;;;;6661879;89;20191;-78
2022/03/31 12:50:44;;;;;;;20.23;10.88;;;8.90;99.90;;;;;;6658721;89;20718;-78
2022/03/31 13:00:52;;;;;;;16.03;8.77;;;8.70;99.90;;;;;;6665831;89;20231;-79
2022/03/31 13:10:53;;;;;;;16.58;8.50;;;8.70;99.90;;;;;;6658422;89;20542;-78
2022/03/31 13:20:54;;;;;;;22.02;11.25;;;8.50;99.90;;;;;;6661815;89;20288;-79
2022/03/31 13:30:55;;;;;;;19.77;10.50;;;8.40;99.90;;;;;;6663303;89;20195;-78
2022/03/31 13:40:55;;;;;;;21.52;11.07;;;8.20;99.90;;;;;;6659603;89;20671;-78
2022/03/31 13:50:56;;;;;;;19.40;10.00;;;8.00;99.90;;;;;;6661988;89;20210;-79
2022/03/31 14:01:10;;;;;;;17.52;9.02;;;7.80;99.90;;;;;;6662896;89;20282;-78
2022/03/31 14:11:11;;;;;;;24.55;10.73;;;8.00;99.90;;;;;;6657047;89;20782;-77
2022/03/31 14:21:12;;;;;;;24.12;11.52;;;8.10;99.90;;;;;;6657356;89;20659;-77
2022/03/31 14:31:15;;;;;;;22.45;10.18;;;7.80;99.90;;;;;;6658213;89;20216;-78
2022/03/31 14:41:17;;;;;;;14.90;7.97;;;7.90;99.90;;;;;;6659006;89;20201;-77
2022/03/31 14:51:23;;;;;;;14.35;7.68;;;7.70;99.90;;;;;;6657894;89;20195;-78
2022/03/31 15:01:24;;;;;;;16.47;8.20;;;7.60;99.90;;;;;;6658139;89;20338;-78
2022/03/31 15:21:46;;;;;;;17.48;9.40;;;7.50;99.90;;;;;;6658668;89;20199;-78
2022/03/31 15:31:49;;;;;;;16.87;9.43;;;7.30;99.90;;;;;;6662193;89;20196;-80
2022/03/31 15:41:53;;;;;;;20.60;12.30;;;7.20;99.90;;;;;;6659363;89;20211;-79
2022/03/31 15:51:54;;;;;;;21.58;11.07;;;6.60;99.90;;;;;;6662940;88;20283;-80
2022/03/31 16:01:55;;;;;;;17.50;10.20;;;6.30;99.90;;;;;;6656317;88;20195;-80
2022/03/31 16:11:57;;;;;;;10.15;6.47;;;6.00;99.90;;;;;;6663411;89;20635;-79
2022/03/31 16:21:58;;;;;;;10.07;5.65;;;5.70;99.90;;;;;;6661898;89;20195;-79
2022/03/31 16:31:58;;;;;;;10.20;6.07;;;5.30;99.90;;;;;;6673577;89;20263;-79
2022/03/31 16:41:59;;;;;;;8.43;5.25;;;5.30;99.90;;;;;;6679554;89;20209;-79
2022/03/31 16:52:00;;;;;;;8.20;4.95;;;4.90;99.90;;;;;;6679163;89;20220;-81
2022/03/31 17:02:01;;;;;;;8.63;5.20;;;5.00;99.90;;;;;;6679227;89;20235;-82
2022/03/31 17:12:06;;;;;;;10.48;5.37;;;5.00;99.90;;;;;;6679235;89;20168;-80
2022/03/31 17:22:06;;;;;;;10.13;5.95;;;4.70;99.90;;;;;;6676798;89;20284;-79
2022/03/31 17:32:07;;;;;;;9.23;5.60;;;4.80;99.90;;;;;;6677278;88;20249;-82
2022/03/31 17:42:08;;;;;;;8.55;5.40;;;4.60;99.90;;;;;;6677335;88;20188;-80
2022/03/31 17:52:10;;;;;;;7.90;5.05;;;4.40;99.90;;;;;;6644062;88;20995;-80
2022/03/31 18:02:10;;;;;;;6.82;4.85;;;4.40;99.90;;;;;;6644306;89;20202;-81
2022/03/31 18:12:11;;;;;;;7.30;5.50;;;4.30;99.90;;;;;;6644412;89;20265;-82
2022/03/31 18:22:14;;;;;;;8.43;5.97;;;4.20;99.90;;;;;;6671751;89;20342;-81
2022/03/31 18:42:34;;;;;;;8.80;6.60;;;4.30;99.90;;;;;;6678754;89;20181;-81
2022/03/31 18:52:38;;;;;;;10.47;7.17;;;4.20;99.90;;;;;;6659728;89;20177;-80
2022/03/31 19:02:38;;;;;;;10.57;7.05;;;4.20;99.90;;;;;;6659520;88;20485;-83
2022/03/31 19:12:39;;;;;;;9.13;6.43;;;4.00;99.90;;;;;;6658925;88;20182;-80
2022/03/31 19:22:41;;;;;;;9.23;6.70;;;4.00;99.90;;;;;;6686725;88;20172;-81
2022/03/31 19:32:41;;;;;;;8.30;6.35;;;3.80;99.90;;;;;;6694263;88;20185;-80
2022/03/31 19:42:42;;;;;;;7.87;6.10;;;3.80;99.90;;;;;;6694129;88;20168;-81
2022/03/31 19:52:43;;;;;;;8.68;6.70;;;3.80;99.90;;;;;;6642608;88;21194;-82
2022/03/31 20:02:43;;;;;;;6.82;5.57;;;3.70;99.90;;;;;;6644681;88;20734;-83
2022/03/31 20:12:45;;;;;;;6.68;5.45;;;3.80;99.90;;;;;;6644941;88;20209;-81
2022/03/31 20:22:46;;;;;;;7.40;5.20;;;3.90;99.90;;;;;;6674089;88;20741;-80
2022/03/31 20:32:48;;;;;;;4.62;3.70;;;3.80;99.90;;;;;;6686940;88;20281;-81
2022/03/31 20:42:48;;;;;;;5.15;4.00;;;3.60;99.90;;;;;;6687518;88;20198;-82
2022/03/31 21:02:58;;;;;;;5.60;4.20;;;3.40;99.90;;;;;;6686547;88;20192;-84
2022/03/31 21:12:58;;;;;;;5.80;4.97;;;3.40;99.90;;;;;;6645509;88;20222;-84
2022/03/31 21:22:59;;;;;;;8.93;6.55;;;3.50;99.90;;;;;;6645585;88;20246;-84
2022/03/31 21:33:00;;;;;;;11.05;7.97;;;3.30;99.90;;;;;;6669113;88;20233;-84
2022/03/31 21:43:01;;;;;;;14.52;9.05;;;3.30;99.90;;;;;;6693792;88;20679;-83
2022/03/31 21:53:02;;;;;;;17.67;10.50;;;3.30;99.90;;;;;;6697250;89;20210;-84
2022/03/31 22:03:03;;;;;;;13.38;8.90;;;3.20;99.90;;;;;;6697007;89;20207;-83
2022/03/31 22:13:03;;;;;;;15.18;9.88;;;3.10;99.90;;;;;;6752012;87;20345;-83
2022/03/31 22:23:06;;;;;;;19.62;11.75;;;3.30;99.90;;;;;;6742318;88;20236;-82
2022/03/31 22:33:06;;;;;;;25.27;13.70;;;3.50;99.90;;;;;;6730438;88;20169;-82
2022/03/31 22:43:07;;;;;;;26.48;13.90;;;3.30;99.90;;;;;;6730535;88;21118;-81
2022/03/31 22:53:08;;;;;;;25.37;14.65;;;3.50;99.90;;;;;;6730220;88;20189;-85
2022/03/31 23:03:10;;;;;;;32.33;16.65;;;3.60;99.90;;;;;;6739875;88;20248;-81
2022/03/31 23:13:11;;;;;;;36.22;18.02;;;3.40;99.90;;;;;;6746960;88;20257;-81
2022/03/31 23:23:12;;;;;;;30.60;15.48;;;3.40;99.90;;;;;;6746991;88;20292;-82
2022/03/31 23:33:12;;;;;;;34.17;17.23;;;3.50;99.90;;;;;;6761787;87;20351;-82
2022/03/31 23:43:13;;;;;;;33.72;16.10;;;3.40;99.90;;;;;;6766138;87;20168;-82
2022/03/31 23:53:14;;;;;;;29.50;15.35;;;3.30;99.90;;;;;;6766584;87;20176;-81
